Time;durP1;ratioP1;P1;durP2;ratioP2;P2;SDS_P1;SDS_P2;PMS_P1;PMS_P2;Temp;Humidity;BMP_temperature;BMP_pressure;BME280_temperature;BME280_humidity;BME280_pressure;Samples;Min_cycle;Max_cycle;Signal;HPM_P1;HPM_P2
2022/05/23 00:00:09;;;;;;;8.70;6.60;;;20.30;99.90;;;;;;5077987;28;20078;-72
2022/05/23 00:02:35;;;;;;;12.63;6.43;;;20.20;99.90;;;;;;5061790;28;20028;-72
2022/05/23 00:05:01;;;;;;;11.07;6.75;;;20.20;99.90;;;;;;5080649;28;20062;-72
2022/05/23 00:07:35;;;;;;;10.43;6.95;;;20.20;99.90;;;;;;5082630;28;20066;-72
2022/05/23 00:10:03;;;;;;;12.10;7.28;;;20.10;99.90;;;;;;5078452;28;20029;-72
2022/05/23 00:12:29;;;;;;;11.43;7.15;;;20.10;99.90;;;;;;5071091;28;20024;-71
2022/05/23 00:14:55;;;;;;;10.98;7.10;;;20.10;99.90;;;;;;5061718;28;20476;-71
2022/05/23 00:17:21;;;;;;;8.15;6.32;;;20.20;99.90;;;;;;5073339;28;20036;-72
2022/05/23 00:19:47;;;;;;;10.65;6.70;;;20.20;99.90;;;;;;5068410;28;20689;-72
2022/05/23 00:22:14;;;;;;;12.27;6.38;;;20.20;99.90;;;;;;5070815;28;20025;-72
2022/05/23 00:24:44;;;;;;;10.07;6.43;;;20.20;99.90;;;;;;5069800;28;20089;-71
2022/05/23 00:27:12;;;;;;;10.30;6.65;;;20.20;99.90;;;;;;5070102;28;20123;-71
2022/05/23 00:29:37;;;;;;;12.07;7.10;;;20.20;99.90;;;;;;5069133;28;20012;-72
2022/05/23 00:37:32;;;;;;;12.00;7.05;;;20.20;99.90;;;;;;5085550;28;20111;-71
2022/05/23 00:39:58;;;;;;;11.15;6.18;;;20.20;99.90;;;;;;5078526;28;20103;-71
2022/05/23 00:45:14;;;;;;;13.93;7.13;;;20.00;99.90;;;;;;5082141;28;20143;-72
2022/05/23 00:47:41;;;;;;;8.60;6.30;;;20.00;99.90;;;;;;5080254;28;20108;-71
2022/05/23 00:50:08;;;;;;;11.40;6.50;;;20.00;99.90;;;;;;5089501;28;20020;-70
2022/05/23 00:52:42;;;;;;;11.15;6.70;;;20.10;99.90;;;;;;5076532;28;20020;-71
2022/05/23 00:55:19;;;;;;;13.68;6.93;;;20.10;99.90;;;;;;5080399;28;20024;-71
2022/05/23 00:57:49;;;;;;;12.27;6.80;;;20.10;99.90;;;;;;5080917;28;20026;-71
2022/05/23 01:00:15;;;;;;;10.18;6.22;;;20.10;99.90;;;;;;5064230;28;20036;-71
2022/05/23 01:02:43;;;;;;;12.23;7.18;;;20.10;99.90;;;;;;5091352;28;20081;-71
2022/05/23 01:05:09;;;;;;;9.38;6.00;;;20.10;99.90;;;;;;5080533;28;20021;-71
2022/05/23 01:07:35;;;;;;;10.10;6.00;;;20.10;99.90;;;;;;5077727;28;20154;-71
2022/05/23 01:10:02;;;;;;;11.73;6.70;;;20.10;99.90;;;;;;5077921;28;20462;-71
2022/05/23 01:12:29;;;;;;;9.93;6.43;;;20.10;99.90;;;;;;5063320;28;20021;-72
2022/05/23 01:14:58;;;;;;;11.23;6.05;;;20.10;99.90;;;;;;5063202;28;20433;-72
2022/05/23 01:17:26;;;;;;;8.68;6.00;;;20.00;99.90;;;;;;5063767;28;20025;-72
2022/05/23 01:19:52;;;;;;;10.43;6.22;;;20.10;99.90;;;;;;5062620;28;20086;-72
2022/05/23 01:22:34;;;;;;;8.88;6.15;;;20.00;99.90;;;;;;5062848;28;20036;-71
2022/05/23 01:25:18;;;;;;;9.88;6.15;;;20.00;99.90;;;;;;5063061;28;20021;-72
2022/05/23 01:27:47;;;;;;;10.88;6.45;;;19.90;99.90;;;;;;5064142;28;20119;-71
2022/05/23 01:30:15;;;;;;;9.63;5.97;;;19.80;99.90;;;;;;5062677;28;20355;-72
2022/05/23 01:32:40;;;;;;;17.38;5.75;;;19.70;99.90;;;;;;5061206;28;20036;-70
2022/05/23 01:35:08;;;;;;;8.02;5.88;;;19.60;99.90;;;;;;5062411;28;20024;-72
2022/05/23 01:37:34;;;;;;;8.68;5.90;;;19.70;99.90;;;;;;5069665;28;20044;-72
2022/05/23 01:40:00;;;;;;;11.07;5.60;;;19.70;99.90;;;;;;5062819;28;20114;-72
2022/05/23 01:42:26;;;;;;;8.77;5.40;;;19.70;99.90;;;;;;5062093;28;20499;-72
2022/05/23 01:44:51;;;;;;;8.38;5.50;;;19.80;99.90;;;;;;5063170;28;20055;-71
2022/05/23 01:47:19;;;;;;;9.90;5.25;;;19.80;99.90;;;;;;5063080;28;20025;-71
2022/05/23 01:49:45;;;;;;;10.32;6.15;;;19.80;99.90;;;;;;5060666;28;20067;-71
2022/05/23 01:52:11;;;;;;;9.18;6.10;;;19.80;99.90;;;;;;5063612;28;20538;-71
2022/05/23 01:54:37;;;;;;;8.32;6.10;;;19.70;99.90;;;;;;5061431;28;20634;-71
2022/05/23 01:57:05;;;;;;;8.43;5.90;;;19.80;99.90;;;;;;5061072;28;20021;-72
2022/05/23 02:02:15;;;;;;;12.27;5.97;;;19.70;99.90;;;;;;5063862;28;20059;-72
2022/05/23 02:04:42;;;;;;;13.63;6.80;;;19.80;99.90;;;;;;5062816;28;20530;-71
2022/05/23 02:07:08;;;;;;;12.23;6.50;;;19.80;99.90;;;;;;5061666;28;20021;-71
2022/05/23 02:09:34;;;;;;;9.20;5.97;;;19.70;99.90;;;;;;5062151;28;20120;-72
2022/05/23 02:12:00;;;;;;;8.18;6.30;;;19.60;99.90;;;;;;5062052;28;20388;-71
2022/05/23 02:14:26;;;;;;;11.57;6.97;;;19.70;99.90;;;;;;5062518;28;20028;-72
2022/05/23 02:16:52;;;;;;;11.38;7.40;;;19.70;99.90;;;;;;5061674;28;20029;-71
2022/05/23 02:19:18;;;;;;;10.45;7.78;;;19.70;99.90;;;;;;5062321;28;20008;-71
2022/05/23 02:21:43;;;;;;;7.75;6.78;;;19.70;99.90;;;;;;5060707;28;20107;-71
2022/05/23 02:24:09;;;;;;;11.50;7.60;;;19.50;99.90;;;;;;5062516;28;20604;-72
2022/05/23 02:26:35;;;;;;;9.65;6.43;;;19.40;99.90;;;;;;5061984;28;20019;-71
2022/05/23 02:29:01;;;;;;;8.90;6.63;;;19.50;99.90;;;;;;5061998;28;20024;-72
2022/05/23 02:31:28;;;;;;;9.32;7.00;;;19.50;99.90;;;;;;5063503;28;20021;-71
2022/05/23 02:33:54;;;;;;;8.95;5.95;;;19.50;99.90;;;;;;5061538;28;20031;-72
2022/05/23 02:36:20;;;;;;;7.82;6.95;;;19.40;99.90;;;;;;5062763;28;20020;-72
2022/05/23 02:38:45;;;;;;;10.80;7.38;;;19.40;99.90;;;;;;5067417;28;20093;-71
2022/05/23 02:41:11;;;;;;;10.13;6.70;;;19.30;99.90;;;;;;5065445;28;20032;-71
2022/05/23 02:43:37;;;;;;;11.50;7.35;;;19.30;99.90;;;;;;5066188;28;20036;-71
2022/05/23 02:46:03;;;;;;;9.80;7.53;;;19.30;99.90;;;;;;5065924;28;20561;-71
2022/05/23 02:48:29;;;;;;;9.65;6.90;;;19.30;99.90;;;;;;5070566;28;20115;-71
2022/05/23 02:50:55;;;;;;;9.65;7.03;;;19.30;99.90;;;;;;5072109;28;20032;-71
2022/05/23 02:53:21;;;;;;;9.35;6.88;;;19.30;99.90;;;;;;5056765;28;20032;-71
2022/05/23 02:55:46;;;;;;;12.27;6.88;;;19.40;99.90;;;;;;5056298;28;20029;-71
2022/05/23 02:58:12;;;;;;;12.13;7.13;;;19.30;99.90;;;;;;5056447;28;20021;-71
2022/05/23 03:00:38;;;;;;;9.38;7.43;;;19.30;99.90;;;;;;5055929;28;20029;-71
2022/05/23 03:03:06;;;;;;;13.98;8.10;;;19.20;99.90;;;;;;5068119;28;20465;-72
2022/05/23 03:05:38;;;;;;;11.20;7.75;;;19.10;99.90;;;;;;5059046;28;20111;-72
2022/05/23 03:08:04;;;;;;;12.98;7.88;;;19.20;99.90;;;;;;5056200;28;20100;-71
2022/05/23 03:10:30;;;;;;;9.68;7.55;;;19.20;99.90;;;;;;5056127;28;20115;-71
2022/05/23 03:12:56;;;;;;;11.38;8.23;;;19.20;99.90;;;;;;5056093;28;20143;-71
2022/05/23 03:15:22;;;;;;;15.23;8.63;;;19.20;99.90;;;;;;5062955;28;20036;-71
2022/05/23 03:17:48;;;;;;;13.02;8.73;;;19.10;99.90;;;;;;5057561;28;20021;-71
2022/05/23 03:20:15;;;;;;;15.13;9.73;;;19.00;99.90;;;;;;5075835;28;20090;-71
2022/05/23 03:28:09;;;;;;;12.07;8.70;;;18.90;99.90;;;;;;5055794;28;20512;-71
2022/05/23 03:30:35;;;;;;;11.75;8.45;;;18.70;99.90;;;;;;5055146;28;20025;-71
2022/05/23 03:33:01;;;;;;;11.55;9.00;;;18.70;99.90;;;;;;5055702;28;20040;-72
2022/05/23 03:35:32;;;;;;;9.30;8.30;;;18.70;99.90;;;;;;5055462;28;20469;-71
2022/05/23 03:37:58;;;;;;;9.27;7.90;;;18.60;99.90;;;;;;5055595;28;20547;-71
2022/05/23 03:40:24;;;;;;;13.27;8.20;;;18.60;99.90;;;;;;5060129;28;20100;-70
2022/05/23 03:42:50;;;;;;;10.52;8.30;;;18.50;99.90;;;;;;5075512;28;20123;-71
2022/05/23 03:45:16;;;;;;;14.38;8.55;;;18.40;99.90;;;;;;5072147;28;20025;-71
2022/05/23 03:47:41;;;;;;;12.68;8.70;;;18.40;99.90;;;;;;5054842;28;20036;-72
2022/05/23 03:50:08;;;;;;;10.98;8.00;;;18.40;99.90;;;;;;5055545;28;20021;-71
2022/05/23 03:52:33;;;;;;;10.73;8.27;;;18.40;99.90;;;;;;5055188;28;20071;-71
2022/05/23 03:54:59;;;;;;;13.00;8.27;;;18.40;99.90;;;;;;5055346;28;20405;-71
2022/05/23 03:57:25;;;;;;;11.82;8.55;;;18.40;99.90;;;;;;5055230;28;20032;-71
2022/05/23 03:59:52;;;;;;;13.68;8.82;;;18.40;99.90;;;;;;5076353;28;20012;-71
2022/05/23 04:02:20;;;;;;;9.77;8.77;;;18.30;99.90;;;;;;5067066;28;20025;-71
2022/05/23 04:04:46;;;;;;;9.32;8.32;;;18.30;99.90;;;;;;5055200;28;20028;-71
2022/05/23 04:07:13;;;;;;;11.40;8.23;;;18.30;99.90;;;;;;5054876;28;20032;-71
2022/05/23 04:09:40;;;;;;;9.85;8.05;;;18.30;99.90;;;;;;5055047;28;20063;-71
2022/05/23 04:12:06;;;;;;;10.35;8.82;;;18.20;99.90;;;;;;5054542;28;20021;-71
2022/05/23 04:14:32;;;;;;;9.95;9.00;;;18.10;99.90;;;;;;5053936;28;20378;-71
2022/05/23 04:16:58;;;;;;;12.73;8.70;;;18.00;99.90;;;;;;5071672;28;20503;-71
2022/05/23 04:19:25;;;;;;;12.35;9.25;;;18.00;99.90;;;;;;5072924;28;20087;-71
2022/05/23 04:21:51;;;;;;;10.32;9.20;;;18.10;99.90;;;;;;5074815;28;20020;-71
2022/05/23 04:24:19;;;;;;;10.48;8.88;;;18.20;99.90;;;;;;5074651;28;20744;-71
2022/05/23 04:26:50;;;;;;;10.82;8.95;;;18.20;99.90;;;;;;5074688;28;20052;-69
2022/05/23 04:29:16;;;;;;;13.00;9.98;;;18.20;99.90;;;;;;5073812;28;20033;-71
2022/05/23 04:31:42;;;;;;;10.13;9.02;;;18.10;99.90;;;;;;5074068;28;20029;-72
2022/05/23 04:36:51;;;;;;;10.90;8.77;;;18.20;99.90;;;;;;5075160;28;20063;-71
2022/05/23 04:39:18;;;;;;;9.80;8.70;;;18.10;99.90;;;;;;5074294;28;20438;-72
2022/05/23 04:41:43;;;;;;;9.48;8.15;;;18.10;99.90;;;;;;5074328;28;20052;-71
2022/05/23 04:44:09;;;;;;;11.90;8.38;;;18.10;99.90;;;;;;5073963;28;20064;-71
2022/05/23 04:46:35;;;;;;;12.77;9.18;;;18.10;99.90;;;;;;5060486;28;20057;-72
2022/05/23 04:51:45;;;;;;;10.07;8.90;;;18.20;99.90;;;;;;5054180;28;20031;-71
2022/05/23 04:54:10;;;;;;;12.48;7.97;;;18.20;99.90;;;;;;5054228;28;20111;-71
2022/05/23 04:56:37;;;;;;;8.73;7.07;;;18.20;99.90;;;;;;5054184;28;20021;-72
2022/05/23 04:59:04;;;;;;;9.77;7.45;;;18.20;99.90;;;;;;5051836;28;20028;-71
2022/05/23 05:01:30;;;;;;;10.95;7.72;;;18.30;99.90;;;;;;5054031;28;20083;-71
2022/05/23 05:03:57;;;;;;;10.93;8.00;;;18.30;99.90;;;;;;5053860;28;20075;-71
2022/05/23 05:06:24;;;;;;;11.88;8.10;;;18.40;99.90;;;;;;5054314;28;20020;-70
2022/05/23 05:08:51;;;;;;;8.73;7.20;;;18.40;99.90;;;;;;5084203;28;20041;-71
2022/05/23 05:11:17;;;;;;;9.52;7.22;;;18.40;99.90;;;;;;5060164;28;20025;-71
2022/05/23 05:13:44;;;;;;;10.82;8.35;;;18.40;99.90;;;;;;5053734;28;20037;-71
2022/05/23 05:16:12;;;;;;;10.10;7.93;;;18.50;99.90;;;;;;5063102;28;20089;-71
2022/05/23 05:18:38;;;;;;;10.23;7.15;;;18.60;99.90;;;;;;5089152;28;20083;-71
2022/05/23 05:21:10;;;;;;;8.93;7.75;;;18.60;99.90;;;;;;5073607;28;20017;-71
2022/05/23 05:23:36;;;;;;;9.37;6.47;;;18.60;99.90;;;;;;5071852;28;20071;-71
2022/05/23 05:26:02;;;;;;;8.25;7.47;;;18.60;99.90;;;;;;5072752;28;20058;-71
2022/05/23 05:28:28;;;;;;;8.93;7.28;;;18.70;99.90;;;;;;5073551;28;20028;-71
2022/05/23 05:31:08;;;;;;;9.88;6.57;;;18.70;99.90;;;;;;5073374;28;20086;-71
2022/05/23 05:33:40;;;;;;;8.63;6.78;;;18.80;99.90;;;;;;5073536;28;20069;-71
2022/05/23 05:36:18;;;;;;;7.95;6.75;;;18.80;99.90;;;;;;5073162;28;20021;-69
2022/05/23 05:38:57;;;;;;;12.27;7.50;;;18.80;99.90;;;;;;5073391;28;20059;-71
2022/05/23 05:41:28;;;;;;;11.90;6.72;;;18.80;99.90;;;;;;5072684;28;20029;-71
2022/05/23 05:44:08;;;;;;;9.27;6.40;;;18.90;99.90;;;;;;5073232;28;20507;-71
2022/05/23 05:46:38;;;;;;;10.13;7.43;;;19.00;99.90;;;;;;5072404;28;20020;-71
2022/05/23 05:49:10;;;;;;;9.88;6.70;;;19.00;99.90;;;;;;5073283;28;20023;-71
2022/05/23 05:51:38;;;;;;;9.27;6.80;;;19.00;99.90;;;;;;5072768;28;20017;-71
2022/05/23 05:54:06;;;;;;;7.43;5.80;;;19.00;99.90;;;;;;5073443;28;20033;-71
2022/05/23 05:56:33;;;;;;;11.13;6.00;;;19.10;99.90;;;;;;5072850;28;20042;-71
2022/05/23 05:58:58;;;;;;;8.95;6.47;;;19.10;99.90;;;;;;5073174;28;20032;-71
2022/05/23 06:01:25;;;;;;;7.05;5.82;;;19.20;99.90;;;;;;5064545;28;20028;-71
2022/05/23 06:03:50;;;;;;;11.35;5.97;;;19.20;99.90;;;;;;5093034;28;20039;-71
2022/05/23 06:11:44;;;;;;;6.78;4.97;;;19.30;99.90;;;;;;5073561;28;20043;-71
2022/05/23 06:14:10;;;;;;;7.88;5.38;;;19.40;99.90;;;;;;5072775;28;20032;-71
2022/05/23 06:16:37;;;;;;;8.15;5.93;;;19.40;99.90;;;;;;5071807;28;20130;-71
2022/05/23 06:19:03;;;;;;;6.78;5.30;;;19.40;99.90;;;;;;5072802;28;20025;-72
2022/05/23 06:21:29;;;;;;;8.25;5.70;;;19.50;99.90;;;;;;5072513;28;20447;-72
2022/05/23 06:23:55;;;;;;;10.35;5.20;;;19.50;99.90;;;;;;5072547;28;20553;-71
2022/05/23 06:26:22;;;;;;;8.68;5.63;;;19.50;99.90;;;;;;5072681;28;20029;-72
2022/05/23 06:28:49;;;;;;;7.65;5.63;;;19.50;99.90;;;;;;5071845;28;20544;-71
2022/05/23 06:31:15;;;;;;;9.40;5.22;;;19.50;99.90;;;;;;5072140;28;20397;-72
2022/05/23 06:33:42;;;;;;;6.93;5.05;;;19.50;99.90;;;;;;5070268;28;20100;-71
2022/05/23 06:36:08;;;;;;;5.57;4.70;;;19.60;99.90;;;;;;5052548;28;20426;-71
2022/05/23 06:38:36;;;;;;;7.88;5.20;;;19.60;99.90;;;;;;5051652;28;20100;-71
2022/05/23 06:41:03;;;;;;;7.75;5.45;;;19.60;99.90;;;;;;5056675;28;20477;-71
2022/05/23 06:43:29;;;;;;;7.43;5.03;;;19.70;99.90;;;;;;5091327;28;20070;-70
2022/05/23 06:45:56;;;;;;;5.97;5.22;;;19.70;99.90;;;;;;5066829;28;20025;-70
2022/05/23 06:48:25;;;;;;;8.40;4.68;;;19.70;99.90;;;;;;5053478;28;20029;-70
2022/05/23 06:50:51;;;;;;;6.78;5.35;;;19.70;99.90;;;;;;5063715;28;20024;-73
2022/05/23 06:53:21;;;;;;;7.97;5.70;;;19.70;99.90;;;;;;5063415;28;20086;-73
2022/05/23 06:55:48;;;;;;;10.15;5.47;;;19.70;99.90;;;;;;5061226;28;20040;-73
2022/05/23 06:58:14;;;;;;;6.97;5.03;;;19.80;99.90;;;;;;5059864;28;20029;-73
2022/05/23 07:00:40;;;;;;;6.35;5.25;;;19.80;99.90;;;;;;5062295;28;20024;-73
2022/05/23 07:03:06;;;;;;;6.53;5.10;;;19.80;99.90;;;;;;5053151;28;20040;-73
2022/05/23 07:13:47;;;;;;;6.80;5.78;;;20.00;99.90;;;;;;5062281;28;20098;-73
2022/05/23 07:16:16;;;;;;;8.60;6.57;;;20.10;99.90;;;;;;5069523;28;20040;-73
2022/05/23 07:18:42;;;;;;;6.40;5.78;;;20.30;99.90;;;;;;5066570;28;20380;-73
2022/05/23 07:21:07;;;;;;;5.90;5.25;;;20.40;99.90;;;;;;5060151;28;20078;-72
2022/05/23 07:23:37;;;;;;;8.40;5.30;;;20.50;99.90;;;;;;5073845;28;20036;-73
2022/05/23 07:26:09;;;;;;;5.85;5.25;;;20.60;99.90;;;;;;5068836;28;20031;-72
2022/05/23 07:28:35;;;;;;;7.80;5.55;;;20.60;99.90;;;;;;5064674;28;20021;-73
2022/05/23 07:31:02;;;;;;;10.15;5.53;;;20.60;99.90;;;;;;5061306;28;20098;-72
2022/05/23 07:33:28;;;;;;;9.88;6.38;;;20.40;99.90;;;;;;5069641;28;20358;-72
2022/05/23 07:35:59;;;;;;;8.15;6.07;;;20.50;99.90;;;;;;5075732;28;20044;-72
2022/05/23 07:38:25;;;;;;;5.95;5.38;;;20.50;99.90;;;;;;5075095;28;20027;-72
2022/05/23 07:40:51;;;;;;;8.07;5.15;;;20.60;99.90;;;;;;5075604;28;20070;-71
2022/05/23 07:43:18;;;;;;;12.50;6.45;;;20.70;99.90;;;;;;5075215;28;20036;-72
2022/05/23 07:45:44;;;;;;;9.35;6.40;;;20.60;99.90;;;;;;5070738;28;20448;-71
2022/05/23 07:48:10;;;;;;;6.95;4.97;;;20.70;99.90;;;;;;5055171;28;20060;-71
2022/05/23 07:50:37;;;;;;;7.80;5.13;;;20.80;99.90;;;;;;5058431;28;20085;-72
2022/05/23 08:01:15;;;;;;;9.05;4.93;;;20.90;99.90;;;;;;5065185;28;20044;-73
2022/05/23 08:03:42;;;;;;;7.05;4.97;;;20.90;99.90;;;;;;5065637;28;20437;-72
2022/05/23 08:06:09;;;;;;;8.95;5.22;;;20.90;99.90;;;;;;5055207;28;20025;-72
2022/05/23 08:08:35;;;;;;;8.18;5.57;;;21.00;99.90;;;;;;5053032;28;20032;-73
2022/05/23 08:11:01;;;;;;;7.15;4.07;;;21.00;99.90;;;;;;5054742;28;20125;-72
2022/05/23 08:13:28;;;;;;;9.48;4.70;;;21.00;99.90;;;;;;5054648;28;20056;-72
2022/05/23 08:15:53;;;;;;;9.30;5.60;;;21.00;99.90;;;;;;5056542;28;20024;-72
2022/05/23 08:18:19;;;;;;;11.93;5.03;;;20.90;99.90;;;;;;5064318;28;20028;-73
2022/05/23 08:20:45;;;;;;;9.85;5.45;;;20.90;99.90;;;;;;4999954;28;22118;-71
2022/05/23 08:23:11;;;;;;;10.60;5.53;;;20.90;99.90;;;;;;5027440;28;20047;-69
2022/05/23 08:25:37;;;;;;;8.20;5.25;;;20.90;99.90;;;;;;5065918;28;20032;-72
2022/05/23 08:28:03;;;;;;;8.38;5.13;;;21.00;99.90;;;;;;5059011;28;20025;-72
2022/05/23 08:30:29;;;;;;;8.00;5.22;;;21.10;99.90;;;;;;5062318;28;20027;-72
2022/05/23 08:32:55;;;;;;;7.93;5.00;;;21.10;99.90;;;;;;5061643;28;20036;-73
2022/05/23 08:35:23;;;;;;;8.60;4.97;;;21.00;99.90;;;;;;5060598;28;20082;-72
2022/05/23 08:37:49;;;;;;;5.90;4.65;;;21.00;99.90;;;;;;5062406;28;20017;-72
2022/05/23 08:40:15;;;;;;;6.57;4.57;;;21.00;99.90;;;;;;5063231;28;20033;-72
2022/05/23 08:42:57;;;;;;;8.18;5.68;;;21.10;99.90;;;;;;5065205;28;20098;-71
2022/05/23 08:45:26;;;;;;;7.15;5.28;;;21.20;99.90;;;;;;5060096;28;20082;-72
2022/05/23 08:48:00;;;;;;;6.97;5.00;;;21.20;99.90;;;;;;5063884;28;20020;-71
2022/05/23 08:50:53;;;;;;;8.15;4.35;;;21.30;99.90;;;;;;5060107;28;20067;-72
2022/05/23 08:53:42;;;;;;;8.77;5.75;;;21.40;99.90;;;;;;5062500;28;20095;-71
2022/05/23 08:56:23;;;;;;;6.95;5.72;;;21.40;99.90;;;;;;5079415;28;20668;-71
2022/05/23 08:58:53;;;;;;;8.27;5.55;;;21.50;99.90;;;;;;5061107;28;20020;-70
2022/05/23 09:01:34;;;;;;;7.32;5.15;;;21.60;99.90;;;;;;5064253;28;20048;-71
2022/05/23 09:04:13;;;;;;;9.73;5.50;;;21.70;99.90;;;;;;5061201;28;20143;-73
2022/05/23 09:06:50;;;;;;;7.63;4.15;;;21.80;99.90;;;;;;5062267;28;20049;-72
2022/05/23 09:09:19;;;;;;;6.20;4.82;;;21.90;99.90;;;;;;5062316;28;20384;-72
2022/05/23 09:12:11;;;;;;;7.82;4.43;;;22.00;99.90;;;;;;5063081;28;20020;-71
2022/05/23 09:14:37;;;;;;;5.35;4.82;;;22.00;99.90;;;;;;5058359;28;20087;-72
2022/05/23 09:17:08;;;;;;;8.30;4.57;;;22.10;99.90;;;;;;5060039;28;20047;-72
2022/05/23 09:19:55;;;;;;;6.20;4.40;;;22.10;99.90;;;;;;5058809;28;20044;-72
2022/05/23 09:22:48;;;;;;;8.20;4.22;;;22.00;99.90;;;;;;5060432;28;20029;-71
2022/05/23 09:25:17;;;;;;;7.15;4.90;;;22.00;99.90;;;;;;5061466;28;20041;-71
2022/05/23 09:28:05;;;;;;;6.57;4.63;;;22.10;99.90;;;;;;5065654;28;20036;-71
2022/05/23 09:30:33;;;;;;;6.43;4.63;;;22.10;99.90;;;;;;5060843;28;20027;-71
2022/05/23 09:33:02;;;;;;;8.13;5.28;;;22.20;99.90;;;;;;5064134;28;20447;-71
2022/05/23 09:35:49;;;;;;;6.18;4.45;;;22.10;99.90;;;;;;5058470;28;20024;-71
2022/05/23 09:38:19;;;;;;;8.75;3.63;;;22.40;99.90;;;;;;5062000;28;20039;-71
2022/05/23 09:40:46;;;;;;;6.43;4.80;;;22.90;99.90;;;;;;5057777;28;20056;-71
2022/05/23 09:49:01;;;;;;;7.30;5.10;;;23.90;99.90;;;;;;5063969;28;20120;-72
2022/05/23 09:51:26;;;;;;;7.63;5.13;;;24.10;99.90;;;;;;5058310;28;21469;-73
2022/05/23 09:53:53;;;;;;;8.13;5.50;;;24.40;99.90;;;;;;5064750;28;20464;-72
2022/05/23 09:56:37;;;;;;;7.05;5.47;;;24.50;99.90;;;;;;5060025;28;20017;-71
2022/05/23 09:59:18;;;;;;;7.85;5.78;;;24.40;99.90;;;;;;5062051;28;20067;-72
2022/05/23 10:01:44;;;;;;;8.23;4.72;;;24.40;99.90;;;;;;5057269;28;20040;-71
2022/05/23 10:04:29;;;;;;;10.63;5.00;;;24.60;99.90;;;;;;5062616;28;20040;-71
2022/05/23 10:06:55;;;;;;;5.90;4.30;;;24.70;99.90;;;;;;5062344;28;20506;-72
2022/05/23 10:09:34;;;;;;;4.80;4.32;;;24.90;99.90;;;;;;5058771;28;20442;-72
2022/05/23 10:12:07;;;;;;;11.40;4.20;;;25.10;99.90;;;;;;5060025;28;20035;-72
2022/05/23 10:14:49;;;;;;;4.75;3.60;;;25.20;99.90;;;;;;5068132;28;20049;-72
2022/05/23 10:17:29;;;;;;;43.17;6.73;;;25.30;99.90;;;;;;5060020;28;20111;-72
2022/05/23 10:20:17;;;;;;;10.93;4.85;;;25.60;99.90;;;;;;5059270;28;20020;-72
2022/05/23 10:22:59;;;;;;;9.38;4.60;;;25.70;99.40;;;;;;5062338;28;20036;-71
2022/05/23 10:25:47;;;;;;;5.03;3.97;;;25.90;99.90;;;;;;5054905;28;20106;-72
2022/05/23 10:28:20;;;;;;;8.63;4.30;;;26.00;98.20;;;;;;5048210;28;20025;-72
2022/05/23 10:30:58;;;;;;;4.72;3.40;;;25.80;98.30;;;;;;5059609;28;20419;-72
2022/05/23 10:33:27;;;;;;;3.97;3.45;;;25.80;97.10;;;;;;5060847;28;20044;-72
2022/05/23 10:36:21;;;;;;;7.70;3.60;;;25.90;98.10;;;;;;5056028;28;20031;-71
2022/05/23 10:44:43;;;;;;;7.65;3.75;;;26.20;96.70;;;;;;5057245;28;20055;-72
2022/05/23 10:47:42;;;;;;;6.30;5.00;;;26.40;97.60;;;;;;5063182;28;20052;-72
2022/05/23 10:50:20;;;;;;;4.72;4.13;;;26.40;96.30;;;;;;5061213;28;20103;-72
2022/05/23 10:53:01;;;;;;;6.43;4.38;;;26.10;97.80;;;;;;5058761;28;20033;-72
2022/05/23 10:55:53;;;;;;;4.65;3.53;;;25.70;97.00;;;;;;5060532;28;20040;-72
2022/05/23 10:58:36;;;;;;;6.77;4.43;;;25.50;97.60;;;;;;5052715;28;20044;-72
2022/05/23 11:01:37;;;;;;;7.20;3.75;;;25.50;98.60;;;;;;5058697;28;20036;-72
2022/05/23 11:04:16;;;;;;;6.82;4.03;;;25.70;98.10;;;;;;5064410;28;20063;-72
2022/05/23 11:07:18;;;;;;;6.95;4.05;;;25.80;97.30;;;;;;5068797;28;20024;-72
2022/05/23 11:10:06;;;;;;;7.88;4.10;;;25.80;97.10;;;;;;5065348;28;20027;-72
2022/05/23 11:13:22;;;;;;;4.18;3.00;;;25.90;97.50;;;;;;5067127;28;20036;-73
2022/05/23 11:16:01;;;;;;;6.22;3.03;;;26.10;98.20;;;;;;5020551;28;20088;-76
2022/05/23 11:18:45;;;;;;;9.55;3.85;;;26.20;98.60;;;;;;5059119;28;20028;-76
2022/05/23 11:21:36;;;;;;;5.82;4.05;;;26.70;97.70;;;;;;5059442;28;20043;-75
2022/05/23 11:24:10;;;;;;;5.90;3.80;;;27.10;97.40;;;;;;5054832;28;20116;-77
2022/05/23 11:26:43;;;;;;;7.82;3.78;;;27.30;96.10;;;;;;5060882;28;20078;-79
2022/05/23 11:35:10;;;;;;;7.30;3.13;;;26.60;95.10;;;;;;5058084;28;20151;-72
2022/05/23 11:37:45;;;;;;;7.85;3.13;;;26.50;97.00;;;;;;5065487;28;20077;-79
2022/05/23 11:40:32;;;;;;;8.63;3.00;;;26.40;96.50;;;;;;5061647;28;20582;-77
2022/05/23 11:43:07;;;;;;;7.03;2.72;;;26.30;95.60;;;;;;5057839;28;20136;-79
2022/05/23 11:45:57;;;;;;;3.00;2.20;;;26.20;96.70;;;;;;5060761;28;20464;-78
2022/05/23 11:51:18;;;;;;;3.42;2.58;;;26.10;96.70;;;;;;5060346;28;20039;-78
2022/05/23 11:53:52;;;;;;;5.15;2.58;;;26.10;97.80;;;;;;5064332;28;21233;-72
2022/05/23 11:56:42;;;;;;;5.75;3.05;;;26.20;99.10;;;;;;5062475;28;20024;-78
2022/05/23 11:59:12;;;;;;;9.48;3.10;;;26.20;96.40;;;;;;5063680;28;20070;-76
2022/05/23 12:01:39;;;;;;;5.28;3.67;;;26.10;96.50;;;;;;5064360;28;20031;-76
2022/05/23 12:04:04;;;;;;;5.60;3.78;;;26.10;95.80;;;;;;5067840;28;20447;-77
2022/05/23 12:06:30;;;;;;;6.25;3.38;;;26.00;95.80;;;;;;5063734;28;20481;-75
2022/05/23 12:09:13;;;;;;;7.72;3.10;;;26.00;96.50;;;;;;5059684;28;20017;-74
2022/05/23 12:11:39;;;;;;;6.57;3.53;;;26.10;96.80;;;;;;5063180;28;20103;-71
2022/05/23 12:14:42;;;;;;;9.18;4.03;;;25.90;96.30;;;;;;5057755;28;20083;-74
2022/05/23 12:17:20;;;;;;;4.93;3.08;;;25.70;95.70;;;;;;5062404;28;20076;-72
2022/05/23 12:19:54;;;;;;;7.35;2.53;;;25.70;99.00;;;;;;5062802;28;21312;-72
2022/05/23 12:23:01;;;;;;;5.13;2.88;;;25.60;98.40;;;;;;5059733;28;20036;-73
2022/05/23 12:25:27;;;;;;;6.22;2.83;;;25.50;97.70;;;;;;5059402;28;20017;-73
2022/05/23 12:27:53;;;;;;;6.47;2.78;;;25.30;99.80;;;;;;5060471;28;20052;-73
2022/05/23 12:30:21;;;;;;;6.13;2.70;;;25.20;99.90;;;;;;5063861;28;20458;-72
2022/05/23 12:32:48;;;;;;;6.28;2.83;;;25.10;99.90;;;;;;5060226;28;20036;-73
2022/05/23 12:35:16;;;;;;;6.82;3.05;;;25.00;99.80;;;;;;5066571;28;20069;-72
2022/05/23 12:38:07;;;;;;;6.80;2.80;;;24.90;99.90;;;;;;5060446;28;20095;-73
2022/05/23 12:40:59;;;;;;;6.45;3.10;;;24.90;99.90;;;;;;5061015;28;20086;-72
2022/05/23 12:43:59;;;;;;;10.80;3.28;;;25.00;99.20;;;;;;5054902;28;20052;-73
2022/05/23 12:46:25;;;;;;;7.22;3.67;;;24.80;99.70;;;;;;5060167;28;20028;-73
2022/05/23 12:49:07;;;;;;;4.03;2.92;;;24.90;99.90;;;;;;5060131;28;20024;-73
2022/05/23 12:52:10;;;;;;;5.93;3.40;;;24.80;99.90;;;;;;5058252;28;20028;-73
2022/05/23 12:54:58;;;;;;;5.93;3.33;;;24.60;99.90;;;;;;5084163;28;20021;-74
2022/05/23 12:57:58;;;;;;;10.20;5.15;;;24.50;99.90;;;;;;5064683;28;20029;-75
2022/05/23 13:00:38;;;;;;;9.75;5.63;;;24.40;99.90;;;;;;5065455;28;20108;-75
2022/05/23 13:03:07;;;;;;;7.00;5.13;;;24.50;99.90;;;;;;5061353;28;20086;-74
2022/05/23 13:05:39;;;;;;;8.52;5.32;;;24.50;99.90;;;;;;5068452;28;20013;-74
2022/05/23 13:08:31;;;;;;;7.43;5.32;;;24.40;99.90;;;;;;5075267;28;20124;-74
2022/05/23 13:11:16;;;;;;;8.73;5.78;;;24.40;99.90;;;;;;5073967;28;20384;-74
2022/05/23 13:13:45;;;;;;;10.43;5.70;;;24.40;99.90;;;;;;5064926;28;20047;-73
2022/05/23 13:16:26;;;;;;;10.15;4.85;;;24.30;99.90;;;;;;5065196;28;20043;-73
2022/05/23 13:27:12;;;;;;;9.50;3.70;;;24.20;99.90;;;;;;5070621;28;20031;-73
2022/05/23 13:29:38;;;;;;;7.63;3.53;;;24.20;99.90;;;;;;5066897;28;20029;-73
2022/05/23 13:32:17;;;;;;;10.57;3.53;;;24.20;99.90;;;;;;5065634;28;20020;-72
2022/05/23 13:34:45;;;;;;;6.88;3.85;;;24.10;99.90;;;;;;5060510;28;20032;-73
2022/05/23 13:37:36;;;;;;;6.68;3.60;;;24.10;99.90;;;;;;5066600;28;20025;-72
2022/05/23 13:40:14;;;;;;;11.95;3.60;;;23.90;99.90;;;;;;5059762;28;20028;-73
2022/05/23 13:42:41;;;;;;;7.85;3.75;;;23.80;99.90;;;;;;5064730;28;20766;-74
2022/05/23 13:45:13;;;;;;;9.75;3.83;;;23.90;99.90;;;;;;5069976;28;20115;-73
2022/05/23 13:48:03;;;;;;;8.63;3.92;;;23.80;99.90;;;;;;5064491;28;20439;-72
2022/05/23 13:50:43;;;;;;;7.05;3.88;;;23.70;99.90;;;;;;5063640;28;20029;-74
2022/05/23 13:53:34;;;;;;;11.07;4.28;;;23.70;99.90;;;;;;5055222;28;20036;-74
2022/05/23 13:56:02;;;;;;;9.82;4.55;;;23.80;99.90;;;;;;5066676;28;20025;-73
2022/05/23 13:58:32;;;;;;;7.38;4.07;;;23.60;99.90;;;;;;5073556;28;20027;-72
2022/05/23 14:01:16;;;;;;;7.55;4.15;;;23.60;99.90;;;;;;5068955;28;20485;-73
2022/05/23 14:03:50;;;;;;;7.30;3.40;;;23.80;99.90;;;;;;5064750;28;20469;-73
2022/05/23 14:06:24;;;;;;;8.23;3.70;;;23.90;99.90;;;;;;5064018;28;20017;-72
2022/05/23 14:08:57;;;;;;;7.78;3.58;;;24.10;99.90;;;;;;5061657;28;20420;-73
2022/05/23 14:11:30;;;;;;;11.05;3.97;;;24.30;99.90;;;;;;5068314;28;20350;-72
2022/05/23 14:14:18;;;;;;;10.38;3.75;;;24.40;99.90;;;;;;5061167;28;20057;-72
2022/05/23 14:16:55;;;;;;;8.55;3.42;;;24.60;99.90;;;;;;5063050;28;20092;-72